< < Back
Terminal Aerodrome Forecast


Current Version              Previous Versions:   1  2  3  4  5  6  7  8  9  

Terminal Aerodrome Forecast

828
FTUS42 KGSP 040342 AAA
TAFHKY
TAF AMD
KHKY 040342Z 0404/0424 VRB03KT 3SM BR BKN040 OVC100
     FM040800 24006KT P6SM BKN020 PROB30 0413/0415 5SM -TSRA
      BKN015CB
     FM041600 25008KT P6SM BKN035 PROB30 0420/0424 5SM TSRA
      BKN030CB=



Latest METAR

169
SAUS70 KWBC 040500 RRI
MTRHKY
METAR KHKY 040453Z AUTO 19005KT 10SM FEW037 SCT060 21/19 A2996 RMK AO2
SLP125 T02110194 402720200


USA.gov is the U.S. government's official web portal to all federal, state and local government web resources and services.